Time;durP1;ratioP1;P1;durP2;ratioP2;P2;SDS_P1;SDS_P2;PMS_P1;PMS_P2;Temp;Humidity;BMP_temperature;BMP_pressure;BME280_temperature;BME280_humidity;BME280_pressure;Samples;Min_cycle;Max_cycle;Signal;HPM_P1;HPM_P2
2023/12/24 00:01:23;;;;;;;2.47;1.30;;;;;;;7.22;100.00;97424.69;6102841;19;20019;-72
2023/12/24 00:03:24;;;;;;;1.17;0.90;;;;;;;7.19;100.00;97412.47;6104714;19;20963;-72
2023/12/24 00:05:24;;;;;;;1.13;0.98;;;;;;;7.17;100.00;97434.06;6104148;19;20006;-72
2023/12/24 00:07:24;;;;;;;1.60;0.88;;;;;;;7.16;100.00;97429.75;6103864;19;20014;-72
2023/12/24 00:09:24;;;;;;;2.17;0.90;;;;;;;7.13;100.00;97416.75;6103819;19;20573;-72
2023/12/24 00:11:25;;;;;;;2.60;1.00;;;;;;;7.16;100.00;97415.19;6101289;19;20045;-72
2023/12/24 00:13:26;;;;;;;1.65;1.10;;;;;;;7.18;100.00;97410.09;6103347;19;20439;-72
2023/12/24 00:15:26;;;;;;;2.05;0.93;;;;;;;7.14;100.00;97414.78;6102385;19;20017;-72
2023/12/24 00:17:26;;;;;;;1.65;1.13;;;;;;;7.20;100.00;97424.25;6102619;19;20382;-72
2023/12/24 00:19:27;;;;;;;3.08;0.93;;;;;;;7.23;100.00;97443.56;6095306;19;21600;-72
2023/12/24 00:21:27;;;;;;;0.88;0.80;;;;;;;7.27;100.00;97432.56;6095600;19;19995;-72
2023/12/24 00:23:27;;;;;;;0.70;0.70;;;;;;;7.20;100.00;97436.06;6100919;19;20024;-72
2023/12/24 00:25:27;;;;;;;2.35;1.10;;;;;;;7.17;100.00;97414.81;6102734;19;20018;-72
2023/12/24 00:27:28;;;;;;;1.55;1.25;;;;;;;7.22;100.00;97427.44;6098754;19;20014;-72
2023/12/24 00:29:28;;;;;;;1.45;0.90;;;;;;;7.29;100.00;97435.75;6101136;19;20014;-72
2023/12/24 00:31:28;;;;;;;1.48;0.80;;;;;;;7.23;100.00;97429.00;6099029;19;20036;-72
2023/12/24 00:33:29;;;;;;;1.13;0.80;;;;;;;7.25;100.00;97427.44;6101100;19;20023;-72
2023/12/24 00:35:31;;;;;;;2.30;1.00;;;;;;;7.22;100.00;97432.94;6103183;19;20006;-72
2023/12/24 00:37:31;;;;;;;1.55;0.68;;;;;;;7.31;100.00;97425.13;6103761;19;20026;-72
2023/12/24 00:39:31;;;;;;;1.00;0.90;;;;;;;7.24;100.00;97412.13;6101139;19;20007;-72
2023/12/24 00:41:32;;;;;;;1.60;1.20;;;;;;;7.25;100.00;97424.69;6099698;19;20562;-72
2023/12/24 00:43:33;;;;;;;2.90;1.08;;;;;;;7.27;100.00;97438.84;6103126;19;19998;-72
2023/12/24 00:45:33;;;;;;;2.25;0.90;;;;;;;7.18;100.00;97445.84;6098626;19;20014;-72
2023/12/24 00:47:34;;;;;;;1.60;1.00;;;;;;;7.18;100.00;97434.84;6100496;19;20557;-72
2023/12/24 00:49:34;;;;;;;1.60;0.80;;;;;;;7.14;100.00;97445.84;6091476;19;20343;-72
2023/12/24 00:51:40;;;;;;;1.80;0.82;;;;;;;7.26;100.00;97426.28;6098772;19;20402;-72
2023/12/24 00:53:41;;;;;;;1.50;1.10;;;;;;;7.21;100.00;97439.59;6102056;19;20062;-72
2023/12/24 00:55:41;;;;;;;2.15;1.23;;;;;;;7.21;100.00;97431.34;6098608;19;20590;-72
2023/12/24 00:57:42;;;;;;;1.38;1.02;;;;;;;7.20;100.00;97432.50;6102442;19;20006;-72
2023/12/24 00:59:42;;;;;;;1.50;1.00;;;;;;;7.15;100.00;97433.66;6096818;19;20007;-72
2023/12/24 01:01:42;;;;;;;0.77;0.77;;;;;;;7.17;100.00;97417.56;6092534;19;20345;-72
2023/12/24 01:03:43;;;;;;;1.10;0.90;;;;;;;7.24;100.00;97431.38;6099221;19;22304;-72
2023/12/24 01:05:43;;;;;;;1.60;1.10;;;;;;;7.22;100.00;97425.47;6095884;19;20390;-72
2023/12/24 01:07:43;;;;;;;1.00;0.90;;;;;;;7.22;100.00;97439.22;6098894;19;20569;-72
2023/12/24 01:09:44;;;;;;;2.13;1.00;;;;;;;7.19;100.00;97431.72;6099068;19;20030;-72
2023/12/24 01:11:44;;;;;;;4.47;1.23;;;;;;;7.20;100.00;97432.50;6102182;19;20080;-72
2023/12/24 01:13:45;;;;;;;1.67;1.05;;;;;;;7.15;100.00;97419.91;6101847;19;20010;-72
2023/12/24 01:15:46;;;;;;;2.75;1.00;;;;;;;7.06;100.00;97422.19;6100761;19;20031;-72
2023/12/24 01:17:46;;;;;;;2.15;1.10;;;;;;;7.08;100.00;97419.84;6100143;19;20023;-72
2023/12/24 01:19:47;;;;;;;1.45;1.08;;;;;;;7.07;100.00;97420.22;6101834;19;20007;-72
2023/12/24 01:21:48;;;;;;;1.70;1.20;;;;;;;7.12;100.00;97420.69;6099883;19;20010;-72
2023/12/24 01:23:48;;;;;;;2.30;1.20;;;;;;;7.15;100.00;97424.63;6101483;19;20042;-72
2023/12/24 01:25:49;;;;;;;4.05;1.30;;;;;;;7.06;100.00;97427.69;6101277;19;20003;-72
2023/12/24 01:27:52;;;;;;;1.35;1.02;;;;;;;7.05;100.00;97431.63;6099244;19;20003;-72
2023/12/24 01:29:54;;;;;;;2.92;1.15;;;;;;;7.10;100.00;97441.47;6099080;19;20007;-72
2023/12/24 01:31:54;;;;;;;4.72;1.55;;;;;;;7.07;100.00;97443.03;6100945;19;20006;-72
2023/12/24 01:33:55;;;;;;;1.15;1.00;;;;;;;7.00;100.00;97446.50;6101231;19;20923;-72
2023/12/24 01:35:55;;;;;;;2.38;1.30;;;;;;;7.03;100.00;97448.50;6100532;19;20078;-72
2023/12/24 01:37:55;;;;;;;2.50;1.30;;;;;;;7.04;100.00;97447.34;6100669;19;20022;-72
2023/12/24 01:39:56;;;;;;;2.38;0.90;;;;;;;7.05;100.00;97448.13;6099465;19;20352;-72
2023/12/24 01:41:56;;;;;;;1.42;1.00;;;;;;;7.01;100.00;97452.78;6099788;19;20007;-72
2023/12/24 01:43:56;;;;;;;3.13;1.08;;;;;;;7.03;100.00;97456.75;6101279;19;20014;-72
2023/12/24 01:45:57;;;;;;;2.38;1.38;;;;;;;7.09;100.00;97459.94;6100394;19;20101;-72
2023/12/24 01:47:58;;;;;;;2.03;1.60;;;;;;;7.04;100.00;97463.03;6101476;19;20011;-72
2023/12/24 01:49:58;;;;;;;1.80;1.05;;;;;;;7.02;100.00;97457.91;6091014;19;20136;-72
2023/12/24 01:51:59;;;;;;;4.32;1.25;;;;;;;7.02;100.00;97451.59;6091636;19;20074;-72
2023/12/24 01:54:00;;;;;;;3.20;1.33;;;;;;;6.98;100.00;97465.34;6090566;19;20804;-72
2023/12/24 01:56:05;;;;;;;2.28;1.10;;;;;;;6.96;100.00;97464.16;6092300;19;20046;-72
2023/12/24 01:58:05;;;;;;;2.55;1.00;;;;;;;6.87;100.00;97455.38;6092285;19;20042;-72
2023/12/24 02:00:06;;;;;;;2.47;1.17;;;;;;;6.92;100.00;97471.56;6093054;19;20097;-72
2023/12/24 02:02:07;;;;;;;0.80;0.80;;;;;;;6.90;100.00;97476.66;6090997;19;20011;-72
2023/12/24 02:04:08;;;;;;;2.80;1.20;;;;;;;6.89;100.00;97461.31;6091916;19;20025;-72
2023/12/24 02:06:10;;;;;;;1.00;0.80;;;;;;;6.96;100.00;97472.41;6091590;19;20006;-72
2023/12/24 02:08:14;;;;;;;1.27;0.88;;;;;;;6.96;100.00;97469.66;6092119;19;20006;-72
2023/12/24 02:10:15;;;;;;;1.65;0.98;;;;;;;6.92;100.00;97472.34;6092706;19;20486;-72
2023/12/24 02:12:15;;;;;;;1.80;1.13;;;;;;;6.95;100.00;97479.03;6090161;19;20003;-72
2023/12/24 02:14:16;;;;;;;2.55;1.40;;;;;;;6.92;100.00;97480.59;6092320;19;20354;-72
2023/12/24 02:16:20;;;;;;;2.92;1.00;;;;;;;6.93;100.00;97473.13;6092260;19;19998;-72
2023/12/24 02:18:21;;;;;;;1.45;1.13;;;;;;;6.91;100.00;97481.78;6092109;19;20007;-72
2023/12/24 02:20:25;;;;;;;1.00;0.85;;;;;;;6.94;100.00;97480.22;6092639;19;20106;-72
2023/12/24 02:22:25;;;;;;;1.23;0.98;;;;;;;6.86;100.00;97476.59;6090637;19;20003;-72
2023/12/24 02:24:26;;;;;;;2.65;1.17;;;;;;;6.81;100.00;97473.41;6092224;19;20013;-72
2023/12/24 02:26:32;;;;;;;1.95;1.00;;;;;;;6.81;100.00;97470.69;6092321;19;20014;-72
2023/12/24 02:28:39;;;;;;;2.38;0.98;;;;;;;6.72;100.00;97462.72;6093373;19;20007;-72
2023/12/24 02:30:44;;;;;;;1.55;1.10;;;;;;;6.72;100.00;97469.03;6091734;19;20047;-72
2023/12/24 02:32:48;;;;;;;1.20;1.10;;;;;;;6.73;100.00;97465.09;6092636;19;20003;-72
2023/12/24 02:34:49;;;;;;;1.23;0.98;;;;;;;6.74;100.00;97474.94;6091199;19;20017;-72
2023/12/24 02:36:51;;;;;;;1.52;0.80;;;;;;;6.80;100.00;97466.34;6091669;19;20190;-72
2023/12/24 02:38:51;;;;;;;1.13;0.90;;;;;;;6.74;100.00;97463.13;6091802;19;20002;-72
2023/12/24 02:40:51;;;;;;;1.80;0.98;;;;;;;6.69;100.00;97471.72;6090935;19;20467;-72
2023/12/24 02:42:52;;;;;;;0.85;0.80;;;;;;;6.72;100.00;97465.47;6091787;19;20014;-72
2023/12/24 02:44:52;;;;;;;1.17;0.80;;;;;;;6.71;100.00;97461.94;6091838;19;20003;-72
2023/12/24 02:46:52;;;;;;;1.30;0.98;;;;;;;6.65;100.00;97460.69;6092461;19;20337;-72
2023/12/24 02:48:53;;;;;;;1.42;0.70;;;;;;;6.73;100.00;97469.81;6090571;19;19994;-72
2023/12/24 02:50:53;;;;;;;1.38;0.90;;;;;;;6.70;100.00;97459.53;6098839;19;20010;-72
2023/12/24 02:52:53;;;;;;;3.00;0.88;;;;;;;6.69;100.00;97457.97;6099139;19;20767;-72
2023/12/24 02:54:55;;;;;;;1.25;0.82;;;;;;;6.70;100.00;97462.28;6100038;19;20010;-72
2023/12/24 02:56:56;;;;;;;1.58;0.90;;;;;;;6.64;100.00;97452.84;6099020;19;20002;-72
2023/12/24 02:58:56;;;;;;;0.70;0.70;;;;;;;6.60;100.00;97454.72;6099764;19;20434;-72
2023/12/24 03:00:56;;;;;;;0.70;0.70;;;;;;;6.64;100.00;97461.88;6099292;19;20453;-72
2023/12/24 03:02:57;;;;;;;0.70;0.70;;;;;;;6.67;100.00;97460.31;6099826;19;20018;-72
2023/12/24 03:04:57;;;;;;;0.60;0.60;;;;;;;6.68;100.00;97462.69;6101446;19;20026;-72
2023/12/24 03:06:57;;;;;;;0.60;0.60;;;;;;;6.81;100.00;97462.44;6105221;19;20330;-72
2023/12/24 03:08:58;;;;;;;0.88;0.85;;;;;;;6.81;100.00;97465.19;6104820;19;20481;-72
2023/12/24 03:11:01;;;;;;;1.48;0.70;;;;;;;6.75;100.00;97456.47;6102637;19;20569;-72
2023/12/24 03:13:02;;;;;;;0.82;0.70;;;;;;;6.83;100.00;97447.13;6105633;19;20021;-72
2023/12/24 03:15:02;;;;;;;1.42;0.82;;;;;;;6.85;100.00;97441.25;6105660;19;20003;-72
2023/12/24 03:17:03;;;;;;;0.68;0.50;;;;;;;6.81;100.00;97435.72;6104365;19;20358;-72
2023/12/24 03:19:03;;;;;;;0.60;0.60;;;;;;;6.81;100.00;97441.22;6104828;19;19998;-72
2023/12/24 03:21:04;;;;;;;0.60;0.60;;;;;;;6.85;100.00;97430.25;6103452;19;20003;-72
2023/12/24 03:23:04;;;;;;;1.10;1.00;;;;;;;6.84;100.00;97442.41;6105352;19;20010;-72
2023/12/24 03:25:05;;;;;;;0.80;0.60;;;;;;;6.94;100.00;97456.25;6104340;19;20010;-72
2023/12/24 03:27:05;;;;;;;0.70;0.50;;;;;;;6.95;100.00;97444.09;6103881;19;20483;-72
2023/12/24 03:29:05;;;;;;;0.75;0.60;;;;;;;6.91;100.00;97442.47;6102942;19;20023;-72
2023/12/24 03:31:05;;;;;;;0.60;0.60;;;;;;;6.93;100.00;97421.69;6103946;19;20003;-72
2023/12/24 03:33:06;;;;;;;0.65;0.65;;;;;;;6.88;100.00;97416.53;6103428;19;20030;-72
2023/12/24 03:35:06;;;;;;;2.22;0.90;;;;;;;6.95;100.00;97421.28;6105425;19;20009;-72
2023/12/24 03:37:07;;;;;;;0.60;0.60;;;;;;;6.92;100.00;97411.84;6103778;19;20075;-72
2023/12/24 03:39:07;;;;;;;1.77;1.25;;;;;;;7.00;100.00;97418.22;6104619;19;20030;-72
2023/12/24 03:41:08;;;;;;;1.35;0.70;;;;;;;7.00;100.00;97405.25;6103728;19;20332;-72
2023/12/24 03:43:08;;;;;;;1.35;0.80;;;;;;;7.06;100.00;97402.94;6103344;19;20019;-72
2023/12/24 03:45:08;;;;;;;1.48;0.70;;;;;;;7.06;100.00;97394.69;6104127;19;20011;-72
2023/12/24 03:47:09;;;;;;;1.55;0.70;;;;;;;7.09;100.00;97393.91;6104411;19;20014;-72
2023/12/24 03:49:10;;;;;;;2.13;0.70;;;;;;;7.16;100.00;97401.44;6104236;19;20257;-72
2023/12/24 03:51:14;;;;;;;1.73;0.68;;;;;;;7.19;100.00;97387.69;6102847;19;20550;-72
2023/12/24 03:53:15;;;;;;;0.88;0.68;;;;;;;7.12;100.00;97384.91;6104862;19;20536;-72
2023/12/24 03:55:15;;;;;;;1.30;0.70;;;;;;;7.11;100.00;97379.78;6103543;19;20467;-72
2023/12/24 03:57:15;;;;;;;0.60;0.60;;;;;;;7.18;100.00;97371.59;6104791;19;20023;-72
2023/12/24 03:59:16;;;;;;;0.77;0.60;;;;;;;7.15;100.00;97372.34;6104296;19;19998;-72
2023/12/24 04:01:17;;;;;;;1.27;0.70;;;;;;;7.10;100.00;97369.94;6103272;19;20010;-72
2023/12/24 04:03:17;;;;;;;2.30;0.70;;;;;;;7.13;100.00;97366.44;6103882;19;20003;-72
2023/12/24 04:05:17;;;;;;;0.60;0.60;;;;;;;7.13;100.00;97363.69;6104040;19;20478;-72
2023/12/24 04:07:18;;;;;;;0.95;0.60;;;;;;;7.17;100.00;97359.78;6102192;19;20010;-72
2023/12/24 04:09:18;;;;;;;0.70;0.60;;;;;;;7.19;100.00;97362.94;6103881;19;20015;-72
2023/12/24 04:11:18;;;;;;;2.20;0.65;;;;;;;7.25;100.00;97377.91;6101960;19;20540;-72
2023/12/24 04:13:18;;;;;;;1.92;0.88;;;;;;;7.21;100.00;97390.88;6103282;19;20311;-72
2023/12/24 04:15:19;;;;;;;2.10;0.80;;;;;;;7.15;100.00;97395.16;6103818;19;20006;-72
2023/12/24 04:17:19;;;;;;;1.67;0.80;;;;;;;7.20;100.00;97385.72;6101792;19;20011;-72
2023/12/24 04:19:21;;;;;;;0.95;0.70;;;;;;;7.18;100.00;97386.13;6103491;19;20015;-72
2023/12/24 04:21:21;;;;;;;1.25;0.80;;;;;;;7.23;100.00;97398.75;6100579;19;20122;-72
2023/12/24 04:23:22;;;;;;;1.58;0.60;;;;;;;7.28;100.00;97407.44;6102867;19;20010;-72
2023/12/24 04:25:22;;;;;;;1.35;0.73;;;;;;;7.28;100.00;97399.19;6103714;19;20459;-72
2023/12/24 04:27:22;;;;;;;0.90;0.60;;;;;;;7.26;100.00;97400.72;6102703;19;20002;-72
2023/12/24 04:29:23;;;;;;;1.48;0.50;;;;;;;7.21;100.00;97396.38;6103779;19;20007;-72
2023/12/24 04:31:23;;;;;;;1.20;0.60;;;;;;;7.21;100.00;97396.38;6101828;19;20011;-72
2023/12/24 04:33:23;;;;;;;0.65;0.60;;;;;;;7.15;100.00;97397.13;6103758;19;20074;-72
2023/12/24 04:35:23;;;;;;;0.63;0.47;;;;;;;7.21;100.00;97385.38;6102880;19;20058;-72
2023/12/24 04:37:24;;;;;;;0.50;0.50;;;;;;;7.26;100.00;97397.97;6102839;19;20002;-72
2023/12/24 04:39:24;;;;;;;0.63;0.60;;;;;;;7.33;100.00;97400.78;6102781;19;20518;-72
2023/12/24 04:41:28;;;;;;;1.17;0.70;;;;;;;7.36;100.00;97382.69;6100885;19;20006;-72
2023/12/24 04:43:28;;;;;;;1.75;0.60;;;;;;;7.39;100.00;97399.25;6103428;19;20078;-72
2023/12/24 04:45:28;;;;;;;1.23;0.80;;;;;;;7.37;100.00;97409.88;6102000;19;19999;-72
2023/12/24 04:47:29;;;;;;;0.63;0.60;;;;;;;7.43;100.00;97416.56;6102057;19;19998;-72
2023/12/24 04:49:29;;;;;;;0.50;0.50;;;;;;;7.41;100.00;97404.38;6103277;19;20479;-72
2023/12/24 04:51:29;;;;;;;0.82;0.50;;;;;;;7.44;100.00;97404.38;6101465;19;20465;-72
2023/12/24 04:53:30;;;;;;;2.67;0.55;;;;;;;7.48;100.00;97399.69;6100523;19;20002;-72
2023/12/24 04:55:30;;;;;;;0.50;0.50;;;;;;;7.39;100.00;97410.25;6101527;19;20020;-72
2023/12/24 04:57:31;;;;;;;0.73;0.60;;;;;;;7.33;100.00;97385.06;6102533;19;20463;-72
2023/12/24 04:59:31;;;;;;;0.95;0.85;;;;;;;7.26;100.00;97387.75;6103133;19;20467;-72
2023/12/24 05:01:32;;;;;;;0.55;0.50;;;;;;;7.33;100.00;97387.03;6100427;19;20011;-72
2023/12/24 05:03:33;;;;;;;1.77;0.50;;;;;;;7.36;100.00;97391.75;6102426;19;20024;-72
2023/12/24 05:05:34;;;;;;;0.40;0.40;;;;;;;7.37;100.00;97389.81;6101547;19;20010;-72
2023/12/24 05:07:34;;;;;;;0.52;0.50;;;;;;;7.37;100.00;97384.31;6102412;19;20413;-72
2023/12/24 05:09:34;;;;;;;1.02;0.50;;;;;;;7.30;100.00;97388.59;6100091;19;20044;-72
2023/12/24 05:11:35;;;;;;;0.82;0.55;;;;;;;7.25;100.00;97372.41;6098356;19;20329;-72
2023/12/24 05:13:36;;;;;;;2.28;0.60;;;;;;;7.25;100.00;97377.91;6102426;19;20540;-72
2023/12/24 05:15:36;;;;;;;2.50;0.60;;;;;;;7.24;100.00;97378.31;6101376;19;20286;-72
2023/12/24 05:17:36;;;;;;;2.85;0.50;;;;;;;7.29;100.00;97387.00;6102294;19;20003;-72
2023/12/24 05:19:37;;;;;;;1.02;0.60;;;;;;;7.34;100.00;97394.09;6102019;19;20002;-72
2023/12/24 05:21:37;;;;;;;1.33;0.57;;;;;;;7.29;100.00;97387.00;6100015;19;20019;-72
2023/12/24 05:23:37;;;;;;;0.75;0.60;;;;;;;7.29;100.00;97387.00;6102879;19;20014;-72
2023/12/24 05:25:38;;;;;;;1.05;0.75;;;;;;;7.29;100.00;97383.47;6100764;19;20506;-72
2023/12/24 05:27:38;;;;;;;1.40;0.70;;;;;;;7.28;100.00;97401.94;6101928;19;20007;-72
2023/12/24 05:29:40;;;;;;;1.63;0.55;;;;;;;7.31;100.00;97392.91;6101620;19;20011;-72
2023/12/24 05:31:41;;;;;;;3.03;0.70;;;;;;;7.38;100.00;97399.63;6101298;19;20014;-72
2023/12/24 05:33:41;;;;;;;1.00;0.90;;;;;;;7.45;100.00;97391.44;6100885;19;20463;-72
2023/12/24 05:35:42;;;;;;;0.60;0.50;;;;;;;7.46;100.00;97387.50;6100935;19;20023;-72
2023/12/24 05:37:42;;;;;;;0.55;0.55;;;;;;;7.49;100.00;97389.47;6101191;19;20126;-72
2023/12/24 05:39:42;;;;;;;1.02;0.70;;;;;;;7.65;100.00;97392.72;6101443;19;20025;-72
2023/12/24 05:41:44;;;;;;;0.60;0.60;;;;;;;7.71;100.00;97384.91;6100523;19;20006;-72
2023/12/24 05:43:44;;;;;;;0.50;0.50;;;;;;;7.68;100.00;97402.16;6101101;19;20009;-72
2023/12/24 05:45:45;;;;;;;0.98;0.60;;;;;;;7.57;100.00;97391.88;6101344;19;20002;-72
2023/12/24 05:47:45;;;;;;;1.90;0.60;;;;;;;7.61;100.00;97402.91;6099481;19;20056;-72
2023/12/24 05:49:45;;;;;;;0.90;0.68;;;;;;;7.59;100.00;97414.31;6091193;19;20550;-72
2023/12/24 05:51:46;;;;;;;0.73;0.60;;;;;;;7.60;100.00;97412.34;6098738;19;20365;-72
2023/12/24 05:53:46;;;;;;;1.38;0.68;;;;;;;7.57;100.00;97418.63;6100163;19;20082;-72
2023/12/24 05:55:46;;;;;;;0.75;0.60;;;;;;;7.58;100.00;97401.72;6100435;19;20065;-72
2023/12/24 05:57:46;;;;;;;0.50;0.50;;;;;;;7.52;100.00;97402.47;6101075;19;20014;-72
2023/12/24 05:59:47;;;;;;;0.65;0.60;;;;;;;7.51;100.00;97396.16;6098359;19;20497;-72
2023/12/24 06:01:47;;;;;;;0.50;0.43;;;;;;;7.51;100.00;97393.41;6098542;19;20010;-72
2023/12/24 06:03:47;;;;;;;0.82;0.50;;;;;;;7.46;100.00;97393.00;6099252;19;20539;-72
2023/12/24 06:05:48;;;;;;;0.70;0.60;;;;;;;7.48;100.00;97385.16;6100033;19;20400;-72
2023/12/24 06:07:48;;;;;;;0.60;0.60;;;;;;;7.43;100.00;97393.75;6100337;19;20010;-72
2023/12/24 06:09:48;;;;;;;0.47;0.47;;;;;;;7.42;100.00;97389.44;6101378;19;20021;-72
2023/12/24 06:11:49;;;;;;;1.27;0.60;;;;;;;7.41;100.00;97401.63;6099415;19;20029;-72
2023/12/24 06:13:49;;;;;;;0.60;0.60;;;;;;;7.37;100.00;97400.81;6099898;19;20029;-72
2023/12/24 06:15:49;;;;;;;0.95;0.68;;;;;;;7.33;100.00;97401.56;6099588;19;20253;-72
2023/12/24 06:17:50;;;;;;;1.60;0.60;;;;;;;7.30;100.00;97404.31;6099802;19;20002;-72
2023/12/24 06:19:50;;;;;;;0.50;0.50;;;;;;;7.30;100.00;97394.09;6100144;19;20482;-72
2023/12/24 06:21:50;;;;;;;0.50;0.50;;;;;;;7.29;100.00;97399.97;6100028;19;20026;-73
2023/12/24 06:23:52;;;;;;;1.17;0.63;;;;;;;7.27;100.00;97403.09;6098930;19;20002;-72
2023/12/24 06:25:52;;;;;;;0.60;0.60;;;;;;;7.23;100.00;97394.03;6099291;19;20018;-73
2023/12/24 06:27:53;;;;;;;0.60;0.60;;;;;;;7.31;100.00;97389.38;6100028;19;20305;-72
2023/12/24 06:29:53;;;;;;;1.00;0.60;;;;;;;7.29;100.00;97380.72;6099931;19;20018;-72
2023/12/24 06:31:56;;;;;;;2.22;0.65;;;;;;;7.30;100.00;97390.53;6099376;19;20010;-72
2023/12/24 06:33:56;;;;;;;2.00;0.60;;;;;;;7.26;100.00;97386.97;6097249;19;20014;-72
2023/12/24 06:35:57;;;;;;;0.63;0.60;;;;;;;7.30;100.00;97388.59;6099373;19;20010;-72
2023/12/24 06:37:57;;;;;;;0.98;0.57;;;;;;;7.35;100.00;97401.19;6100328;19;20776;-72
2023/12/24 06:39:58;;;;;;;0.60;0.60;;;;;;;7.36;100.00;97419.25;6102204;19;20019;-72
2023/12/24 06:41:58;;;;;;;0.60;0.60;;;;;;;7.33;100.00;97409.81;6104072;19;20007;-72
2023/12/24 06:43:58;;;;;;;1.00;0.70;;;;;;;7.32;100.00;97418.47;6105473;19;20070;-72
2023/12/24 06:45:59;;;;;;;0.50;0.50;;;;;;;7.36;100.00;97419.25;6100419;19;20019;-72
2023/12/24 06:48:02;;;;;;;0.85;0.50;;;;;;;7.41;100.00;97399.66;6104186;19;20014;-72
2023/12/24 06:50:03;;;;;;;1.02;0.60;;;;;;;7.38;100.00;97403.19;6097261;19;20011;-72
2023/12/24 06:52:03;;;;;;;0.60;0.60;;;;;;;7.37;100.00;97414.56;6096102;19;20013;-72
2023/12/24 06:54:04;;;;;;;1.80;0.70;;;;;;;7.32;100.00;97394.47;6096394;19;20250;-72
2023/12/24 06:56:04;;;;;;;0.55;0.55;;;;;;;7.31;100.00;97406.66;6094590;19;20026;-72
2023/12/24 06:58:06;;;;;;;0.85;0.80;;;;;;;7.35;100.00;97411.41;6095443;19;20061;-73
2023/12/24 07:00:07;;;;;;;0.83;0.63;;;;;;;7.32;100.00;97405.50;6090914;19;20348;-72
2023/12/24 07:02:10;;;;;;;0.70;0.70;;;;;;;7.33;100.00;97403.53;6094253;19;20071;-72
2023/12/24 07:04:10;;;;;;;0.60;0.60;;;;;;;7.29;100.00;97400.75;6093339;19;20331;-72
2023/12/24 07:06:11;;;;;;;0.77;0.60;;;;;;;7.36;100.00;97400.00;6095334;19;20023;-72
2023/12/24 07:08:12;;;;;;;1.00;0.60;;;;;;;7.39;100.00;97406.72;6089865;19;20002;-72
2023/12/24 07:10:12;;;;;;;0.52;0.52;;;;;;;7.31;100.00;97392.91;6092160;19;20544;-73
2023/12/24 07:12:12;;;;;;;0.50;0.50;;;;;;;7.28;100.00;97393.69;6094285;19;20006;-72
2023/12/24 07:14:12;;;;;;;0.50;0.50;;;;;;;7.29;100.00;97392.50;6096760;19;20447;-72
2023/12/24 07:16:13;;;;;;;1.80;0.60;;;;;;;7.36;100.00;97399.22;6094316;19;20070;-72
2023/12/24 07:18:13;;;;;;;1.10;0.52;;;;;;;7.31;100.00;97392.91;6094549;19;20028;-72
2023/12/24 07:20:14;;;;;;;0.82;0.60;;;;;;;7.39;100.00;97412.22;6095232;19;20005;-72
2023/12/24 07:22:16;;;;;;;0.60;0.60;;;;;;;7.39;100.00;97393.75;6090381;19;20010;-73
2023/12/24 07:24:16;;;;;;;0.95;0.73;;;;;;;7.32;100.00;97391.72;6095530;19;20311;-73
2023/12/24 07:26:17;;;;;;;0.57;0.57;;;;;;;7.30;100.00;97387.78;6095163;19;19999;-73
2023/12/24 07:28:17;;;;;;;0.60;0.60;;;;;;;7.28;100.00;97390.13;6095074;19;20021;-72
2023/12/24 07:30:17;;;;;;;0.63;0.50;;;;;;;7.23;100.00;97385.00;6096041;19;19990;-72
2023/12/24 07:32:18;;;;;;;0.70;0.70;;;;;;;7.26;100.00;97378.72;6092125;19;20322;-72
2023/12/24 07:34:18;;;;;;;0.60;0.60;;;;;;;7.27;100.00;97386.56;6093564;19;20062;-72
2023/12/24 07:36:19;;;;;;;1.23;0.95;;;;;;;7.26;100.00;97378.72;6093981;19;20002;-72
2023/12/24 07:38:19;;;;;;;0.50;0.50;;;;;;;7.21;100.00;97379.88;6095237;19;20006;-73
2023/12/24 07:40:19;;;;;;;0.50;0.50;;;;;;;7.19;100.00;97365.69;6091652;19;20028;-73
2023/12/24 07:42:19;;;;;;;0.50;0.50;;;;;;;7.24;100.00;97367.31;6091534;19;20824;-72
2023/12/24 07:44:20;;;;;;;0.50;0.50;;;;;;;7.20;100.00;97378.31;6093865;19;20002;-73
2023/12/24 07:46:20;;;;;;;0.50;0.50;;;;;;;7.21;100.00;97384.59;6092495;19;21070;-73
2023/12/24 07:48:20;;;;;;;0.60;0.52;;;;;;;7.21;100.00;97390.88;6096315;19;20030;-73
2023/12/24 07:50:21;;;;;;;0.45;0.45;;;;;;;7.22;100.00;97381.44;6093670;19;20100;-73
2023/12/24 07:52:21;;;;;;;0.50;0.50;;;;;;;7.27;100.00;97388.53;6099859;19;20073;-72
2023/12/24 07:54:21;;;;;;;0.40;0.40;;;;;;;7.29;100.00;97395.25;6103900;19;20184;-72
2023/12/24 07:56:22;;;;;;;0.50;0.50;;;;;;;7.29;100.00;97398.00;6102571;19;20033;-72
2023/12/24 07:58:22;;;;;;;0.40;0.40;;;;;;;7.25;100.00;97416.44;6103221;19;20007;-73
2023/12/24 08:00:22;;;;;;;0.43;0.43;;;;;;;7.25;100.00;97413.69;6103635;19;20011;-72
2023/12/24 08:02:22;;;;;;;2.30;0.50;;;;;;;7.32;100.00;97413.75;6101952;19;20003;-72
2023/12/24 08:04:23;;;;;;;0.40;0.40;;;;;;;7.29;100.00;97398.00;6104288;19;19995;-73
2023/12/24 08:06:23;;;;;;;0.40;0.40;;;;;;;7.27;100.00;97399.53;6103607;19;20542;-73
2023/12/24 08:08:23;;;;;;;0.40;0.40;;;;;;;7.33;100.00;97395.28;6102627;19;20006;-72
2023/12/24 08:10:24;;;;;;;0.47;0.47;;;;;;;7.39;100.00;97398.47;6103585;19;19998;-72
2023/12/24 08:12:24;;;;;;;0.55;0.50;;;;;;;7.40;100.00;97402.78;6103769;19;20543;-73
2023/12/24 08:14:24;;;;;;;0.55;0.55;;;;;;;7.40;100.00;97394.53;6104015;19;20471;-72
2023/12/24 08:16:24;;;;;;;1.08;0.52;;;;;;;7.43;100.00;97411.06;6102383;19;20395;-72
2023/12/24 08:18:25;;;;;;;0.50;0.50;;;;;;;7.45;100.00;97411.50;6104145;19;20352;-73
2023/12/24 08:20:25;;;;;;;0.50;0.50;;;;;;;7.49;100.00;97419.75;6103940;19;20002;-72
2023/12/24 08:22:25;;;;;;;0.55;0.55;;;;;;;7.49;100.00;97411.50;6102427;19;20010;-72
2023/12/24 08:24:26;;;;;;;0.57;0.50;;;;;;;7.46;100.00;97415.03;6103547;19;20021;-72
2023/12/24 08:26:26;;;;;;;0.82;0.75;;;;;;;7.51;100.00;97411.91;6102467;19;20011;-73
2023/12/24 08:28:26;;;;;;;0.52;0.52;;;;;;;7.44;100.00;97415.38;6103396;19;20094;-73
2023/12/24 08:30:26;;;;;;;0.73;0.65;;;;;;;7.44;100.00;97403.59;6102455;19;20010;-73
2023/12/24 08:32:27;;;;;;;0.50;0.50;;;;;;;7.40;100.00;97400.03;6103017;19;20035;-72
2023/12/24 08:34:27;;;;;;;0.73;0.70;;;;;;;7.45;100.00;97394.19;6103132;19;20515;-73
2023/12/24 08:36:28;;;;;;;0.43;0.43;;;;;;;7.43;100.00;97385.50;6097875;19;20011;-73
2023/12/24 08:38:28;;;;;;;0.60;0.60;;;;;;;7.43;100.00;97389.03;6102283;19;20584;-73
2023/12/24 08:40:28;;;;;;;0.80;0.60;;;;;;;7.42;100.00;97403.19;6102875;19;20010;-72
2023/12/24 08:42:29;;;;;;;0.50;0.50;;;;;;;7.42;100.00;97390.22;6101135;19;20027;-73
2023/12/24 08:44:29;;;;;;;0.70;0.70;;;;;;;7.40;100.00;97400.03;6102139;19;20017;-73
2023/12/24 08:46:29;;;;;;;0.55;0.55;;;;;;;7.44;100.00;97403.59;6102574;19;20086;-73
2023/12/24 08:48:30;;;;;;;1.20;0.75;;;;;;;7.47;100.00;97400.09;6101435;19;20011;-73
2023/12/24 08:50:31;;;;;;;1.15;0.77;;;;;;;7.46;100.00;97391.03;6101519;19;20489;-73
2023/12/24 08:52:31;;;;;;;0.60;0.60;;;;;;;7.47;100.00;97395.38;6101069;19;20038;-73
2023/12/24 08:54:32;;;;;;;0.75;0.60;;;;;;;7.57;100.00;97397.41;6102574;19;20078;-73
2023/12/24 08:56:33;;;;;;;0.50;0.50;;;;;;;7.56;100.00;97371.03;6103249;19;20649;-72
2023/12/24 08:58:33;;;;;;;1.83;1.00;;;;;;;7.57;100.00;97367.13;6100963;19;20017;-73
2023/12/24 09:00:35;;;;;;;0.60;0.60;;;;;;;7.60;100.00;97371.06;6101595;19;20007;-73
2023/12/24 09:02:37;;;;;;;0.60;0.50;;;;;;;7.65;100.00;97370.69;6100394;19;20034;-72
2023/12/24 09:04:37;;;;;;;0.40;0.40;;;;;;;7.68;100.00;97372.66;6102252;19;20325;-73
2023/12/24 09:06:37;;;;;;;0.57;0.50;;;;;;;7.66;100.00;97382.50;6102086;19;20231;-73
2023/12/24 09:08:38;;;;;;;0.50;0.50;;;;;;;7.71;100.00;97387.66;6101872;19;20111;-72
2023/12/24 09:10:38;;;;;;;0.60;0.60;;;;;;;7.69;100.00;97374.25;6100425;19;20062;-73
2023/12/24 09:12:38;;;;;;;1.38;0.57;;;;;;;7.72;100.00;97381.75;6100844;19;20011;-73
2023/12/24 09:14:38;;;;;;;0.57;0.57;;;;;;;7.73;100.00;97385.28;6101869;19;20014;-73
2023/12/24 09:16:39;;;;;;;0.88;0.68;;;;;;;7.72;100.00;97387.25;6101033;19;20006;-73
2023/12/24 09:18:39;;;;;;;0.52;0.52;;;;;;;7.73;100.00;97388.03;6101600;19;20391;-73
2023/12/24 09:20:39;;;;;;;0.93;0.82;;;;;;;7.78;100.00;97374.72;6100023;19;20006;-73
2023/12/24 09:22:40;;;;;;;1.17;0.80;;;;;;;7.77;100.00;97386.88;6102031;19;20011;-73
2023/12/24 09:24:41;;;;;;;1.73;0.65;;;;;;;7.90;100.00;97392.84;6101151;19;20017;-73
2023/12/24 09:26:41;;;;;;;2.72;1.50;;;;;;;7.91;100.00;97399.94;6100635;19;20423;-73
2023/12/24 09:28:41;;;;;;;0.50;0.50;;;;;;;7.89;100.00;97396.78;6101196;19;20800;-73